sensor_id;sensor_type;location;lat;lon;timestamp;P1;durP1;ratioP1;P2;durP2;ratioP2
1829;SDS011;914;48.118;11.600;2023-05-07T00:01:42;8.03;;;5.70;;
1829;SDS011;914;48.118;11.600;2023-05-07T00:04:08;7.53;;;6.03;;
1829;SDS011;914;48.118;11.600;2023-05-07T00:06:34;6.30;;;5.70;;
1829;SDS011;914;48.118;11.600;2023-05-07T00:08:59;10.43;;;5.80;;
1829;SDS011;914;48.118;11.600;2023-05-07T00:11:26;6.83;;;5.80;;
1829;SDS011;914;48.118;11.600;2023-05-07T00:13:52;10.90;;;5.43;;
1829;SDS011;914;48.118;11.600;2023-05-07T00:16:18;5.90;;;5.30;;
1829;SDS011;914;48.118;11.600;2023-05-07T00:18:45;5.83;;;5.23;;
1829;SDS011;914;48.118;11.600;2023-05-07T00:21:11;4.97;;;4.50;;
1829;SDS011;914;48.118;11.600;2023-05-07T00:23:36;6.47;;;5.07;;
1829;SDS011;914;48.118;11.600;2023-05-07T00:26:02;5.67;;;4.60;;
1829;SDS011;914;48.118;11.600;2023-05-07T00:28:28;5.17;;;4.73;;
1829;SDS011;914;48.118;11.600;2023-05-07T00:30:54;5.80;;;5.03;;
1829;SDS011;914;48.118;11.600;2023-05-07T00:33:20;9.67;;;5.00;;
1829;SDS011;914;48.118;11.600;2023-05-07T00:35:47;5.67;;;4.90;;
1829;SDS011;914;48.118;11.600;2023-05-07T00:38:13;5.17;;;4.60;;
1829;SDS011;914;48.118;11.600;2023-05-07T00:40:39;5.00;;;4.50;;
1829;SDS011;914;48.118;11.600;2023-05-07T00:43:04;5.17;;;4.60;;
1829;SDS011;914;48.118;11.600;2023-05-07T00:45:30;7.50;;;4.77;;
1829;SDS011;914;48.118;11.600;2023-05-07T00:48:00;5.50;;;5.00;;
1829;SDS011;914;48.118;11.600;2023-05-07T00:50:27;6.10;;;4.93;;
1829;SDS011;914;48.118;11.600;2023-05-07T00:52:53;6.23;;;4.80;;
1829;SDS011;914;48.118;11.600;2023-05-07T00:55:20;7.07;;;5.30;;
1829;SDS011;914;48.118;11.600;2023-05-07T00:57:46;5.47;;;4.63;;
1829;SDS011;914;48.118;11.600;2023-05-07T01:00:12;6.93;;;5.00;;
1829;SDS011;914;48.118;11.600;2023-05-07T01:02:38;7.10;;;5.40;;
1829;SDS011;914;48.118;11.600;2023-05-07T01:05:05;5.80;;;5.30;;
1829;SDS011;914;48.118;11.600;2023-05-07T01:07:38;11.17;;;5.60;;
1829;SDS011;914;48.118;11.600;2023-05-07T01:10:06;8.63;;;5.17;;
1829;SDS011;914;48.118;11.600;2023-05-07T01:12:34;5.87;;;5.10;;
1829;SDS011;914;48.118;11.600;2023-05-07T01:15:01;6.50;;;5.10;;
1829;SDS011;914;48.118;11.600;2023-05-07T01:17:28;6.23;;;4.90;;
1829;SDS011;914;48.118;11.600;2023-05-07T01:19:54;7.00;;;5.60;;
1829;SDS011;914;48.118;11.600;2023-05-07T01:22:30;6.13;;;5.03;;
1829;SDS011;914;48.118;11.600;2023-05-07T01:24:57;5.87;;;4.80;;
1829;SDS011;914;48.118;11.600;2023-05-07T01:27:25;5.47;;;4.97;;
1829;SDS011;914;48.118;11.600;2023-05-07T01:29:51;5.37;;;4.87;;
1829;SDS011;914;48.118;11.600;2023-05-07T01:32:17;4.97;;;4.57;;
1829;SDS011;914;48.118;11.600;2023-05-07T01:34:46;5.47;;;4.97;;
1829;SDS011;914;48.118;11.600;2023-05-07T01:37:14;7.43;;;5.03;;
1829;SDS011;914;48.118;11.600;2023-05-07T01:39:40;7.57;;;4.80;;
1829;SDS011;914;48.118;11.600;2023-05-07T01:42:06;5.20;;;4.67;;
1829;SDS011;914;48.118;11.600;2023-05-07T01:44:31;5.67;;;5.00;;
1829;SDS011;914;48.118;11.600;2023-05-07T01:46:58;5.53;;;5.03;;
1829;SDS011;914;48.118;11.600;2023-05-07T01:49:24;6.10;;;4.80;;
1829;SDS011;914;48.118;11.600;2023-05-07T01:51:50;5.00;;;4.50;;
1829;SDS011;914;48.118;11.600;2023-05-07T01:54:16;5.63;;;4.57;;
1829;SDS011;914;48.118;11.600;2023-05-07T01:56:42;6.03;;;4.37;;
1829;SDS011;914;48.118;11.600;2023-05-07T01:59:08;7.30;;;4.80;;
1829;SDS011;914;48.118;11.600;2023-05-07T02:01:33;5.93;;;5.00;;
1829;SDS011;914;48.118;11.600;2023-05-07T02:03:59;8.00;;;4.87;;
1829;SDS011;914;48.118;11.600;2023-05-07T02:06:25;5.13;;;4.63;;
1829;SDS011;914;48.118;11.600;2023-05-07T02:08:51;5.50;;;4.90;;
1829;SDS011;914;48.118;11.600;2023-05-07T02:11:16;6.03;;;5.03;;
1829;SDS011;914;48.118;11.600;2023-05-07T02:13:42;6.73;;;5.10;;
1829;SDS011;914;48.118;11.600;2023-05-07T02:16:08;5.90;;;5.27;;
1829;SDS011;914;48.118;11.600;2023-05-07T02:18:33;5.63;;;4.73;;
1829;SDS011;914;48.118;11.600;2023-05-07T02:21:00;6.73;;;5.50;;
1829;SDS011;914;48.118;11.600;2023-05-07T02:23:26;9.90;;;5.90;;
1829;SDS011;914;48.118;11.600;2023-05-07T02:25:51;8.37;;;4.97;;
1829;SDS011;914;48.118;11.600;2023-05-07T02:28:17;5.73;;;5.10;;
1829;SDS011;914;48.118;11.600;2023-05-07T02:30:58;7.50;;;5.73;;
1829;SDS011;914;48.118;11.600;2023-05-07T02:33:25;5.40;;;4.90;;
1829;SDS011;914;48.118;11.600;2023-05-07T02:35:51;7.73;;;5.20;;
1829;SDS011;914;48.118;11.600;2023-05-07T02:38:17;6.60;;;4.70;;
1829;SDS011;914;48.118;11.600;2023-05-07T02:40:42;5.20;;;4.70;;
1829;SDS011;914;48.118;11.600;2023-05-07T02:43:08;5.37;;;4.87;;
1829;SDS011;914;48.118;11.600;2023-05-07T02:45:34;6.60;;;4.53;;
1829;SDS011;914;48.118;11.600;2023-05-07T02:48:02;5.57;;;4.60;;
1829;SDS011;914;48.118;11.600;2023-05-07T02:50:28;6.43;;;4.70;;
1829;SDS011;914;48.118;11.600;2023-05-07T02:52:54;7.63;;;5.07;;
1829;SDS011;914;48.118;11.600;2023-05-07T02:55:20;7.43;;;4.97;;
1829;SDS011;914;48.118;11.600;2023-05-07T02:57:46;4.90;;;4.20;;
1829;SDS011;914;48.118;11.600;2023-05-07T03:02:41;6.57;;;4.87;;
1829;SDS011;914;48.118;11.600;2023-05-07T03:05:07;5.13;;;4.67;;
1829;SDS011;914;48.118;11.600;2023-05-07T03:07:34;5.57;;;4.83;;
1829;SDS011;914;48.118;11.600;2023-05-07T03:10:00;5.07;;;4.57;;
1829;SDS011;914;48.118;11.600;2023-05-07T03:12:26;5.20;;;4.20;;
1829;SDS011;914;48.118;11.600;2023-05-07T03:14:51;5.00;;;3.90;;
1829;SDS011;914;48.118;11.600;2023-05-07T03:17:17;6.20;;;4.30;;
1829;SDS011;914;48.118;11.600;2023-05-07T03:19:43;7.43;;;4.20;;
1829;SDS011;914;48.118;11.600;2023-05-07T03:22:08;5.77;;;4.07;;
1829;SDS011;914;48.118;11.600;2023-05-07T03:24:34;4.30;;;3.97;;
1829;SDS011;914;48.118;11.600;2023-05-07T03:26:59;6.23;;;4.00;;
1829;SDS011;914;48.118;11.600;2023-05-07T03:29:26;5.57;;;4.13;;
1829;SDS011;914;48.118;11.600;2023-05-07T03:31:51;4.90;;;4.40;;
1829;SDS011;914;48.118;11.600;2023-05-07T03:34:17;7.00;;;4.37;;
1829;SDS011;914;48.118;11.600;2023-05-07T03:36:47;6.10;;;4.73;;
1829;SDS011;914;48.118;11.600;2023-05-07T03:39:13;4.70;;;4.20;;
1829;SDS011;914;48.118;11.600;2023-05-07T03:41:39;6.83;;;4.10;;
1829;SDS011;914;48.118;11.600;2023-05-07T03:44:05;4.80;;;4.30;;
1829;SDS011;914;48.118;11.600;2023-05-07T03:46:31;8.23;;;4.87;;
1829;SDS011;914;48.118;11.600;2023-05-07T03:48:57;6.00;;;4.30;;
1829;SDS011;914;48.118;11.600;2023-05-07T03:51:23;4.60;;;4.20;;
1829;SDS011;914;48.118;11.600;2023-05-07T03:53:49;6.50;;;4.40;;
1829;SDS011;914;48.118;11.600;2023-05-07T03:56:17;6.60;;;4.40;;
1829;SDS011;914;48.118;11.600;2023-05-07T03:58:43;5.10;;;3.53;;
1829;SDS011;914;48.118;11.600;2023-05-07T04:01:09;4.53;;;4.13;;
1829;SDS011;914;48.118;11.600;2023-05-07T04:03:35;4.67;;;3.93;;
1829;SDS011;914;48.118;11.600;2023-05-07T04:06:00;7.13;;;4.17;;
1829;SDS011;914;48.118;11.600;2023-05-07T04:08:26;7.83;;;4.10;;
1829;SDS011;914;48.118;11.600;2023-05-07T04:10:55;4.43;;;3.80;;
1829;SDS011;914;48.118;11.600;2023-05-07T04:13:21;4.63;;;4.00;;
1829;SDS011;914;48.118;11.600;2023-05-07T04:15:47;4.33;;;3.90;;
1829;SDS011;914;48.118;11.600;2023-05-07T04:18:14;4.43;;;3.83;;
1829;SDS011;914;48.118;11.600;2023-05-07T04:20:40;5.27;;;3.70;;
1829;SDS011;914;48.118;11.600;2023-05-07T04:23:06;5.57;;;4.00;;
1829;SDS011;914;48.118;11.600;2023-05-07T04:25:32;6.80;;;4.07;;
1829;SDS011;914;48.118;11.600;2023-05-07T04:27:58;4.50;;;3.80;;
1829;SDS011;914;48.118;11.600;2023-05-07T04:30:24;5.87;;;4.23;;
1829;SDS011;914;48.118;11.600;2023-05-07T04:32:49;4.40;;;3.73;;
1829;SDS011;914;48.118;11.600;2023-05-07T04:35:15;5.10;;;3.57;;
1829;SDS011;914;48.118;11.600;2023-05-07T04:37:41;3.67;;;3.37;;
1829;SDS011;914;48.118;11.600;2023-05-07T04:40:07;4.93;;;3.90;;
1829;SDS011;914;48.118;11.600;2023-05-07T04:42:33;3.80;;;3.50;;
1829;SDS011;914;48.118;11.600;2023-05-07T04:44:58;5.47;;;3.93;;
1829;SDS011;914;48.118;11.600;2023-05-07T04:47:25;4.77;;;3.37;;
1829;SDS011;914;48.118;11.600;2023-05-07T04:49:50;6.30;;;4.10;;
1829;SDS011;914;48.118;11.600;2023-05-07T04:52:16;6.07;;;3.97;;
1829;SDS011;914;48.118;11.600;2023-05-07T04:54:42;4.57;;;3.77;;
1829;SDS011;914;48.118;11.600;2023-05-07T04:57:07;14.57;;;4.00;;
1829;SDS011;914;48.118;11.600;2023-05-07T04:59:33;5.57;;;3.97;;
1829;SDS011;914;48.118;11.600;2023-05-07T05:01:58;5.63;;;3.93;;
1829;SDS011;914;48.118;11.600;2023-05-07T05:04:24;4.83;;;4.43;;
1829;SDS011;914;48.118;11.600;2023-05-07T05:06:50;4.53;;;3.60;;
1829;SDS011;914;48.118;11.600;2023-05-07T05:09:16;5.43;;;3.97;;
1829;SDS011;914;48.118;11.600;2023-05-07T05:11:42;3.73;;;3.43;;
1829;SDS011;914;48.118;11.600;2023-05-07T05:14:07;4.20;;;3.80;;
1829;SDS011;914;48.118;11.600;2023-05-07T05:16:33;4.07;;;3.53;;
1829;SDS011;914;48.118;11.600;2023-05-07T05:18:59;5.23;;;3.87;;
1829;SDS011;914;48.118;11.600;2023-05-07T05:21:26;5.00;;;3.33;;
1829;SDS011;914;48.118;11.600;2023-05-07T05:23:52;3.73;;;3.33;;
1829;SDS011;914;48.118;11.600;2023-05-07T05:26:18;3.77;;;3.40;;
1829;SDS011;914;48.118;11.600;2023-05-07T05:28:43;4.43;;;3.53;;
1829;SDS011;914;48.118;11.600;2023-05-07T05:31:09;3.80;;;3.30;;
1829;SDS011;914;48.118;11.600;2023-05-07T05:33:35;5.07;;;3.70;;
1829;SDS011;914;48.118;11.600;2023-05-07T05:36:01;5.17;;;4.10;;
1829;SDS011;914;48.118;11.600;2023-05-07T05:38:26;3.73;;;3.43;;
1829;SDS011;914;48.118;11.600;2023-05-07T05:40:52;4.30;;;3.30;;
1829;SDS011;914;48.118;11.600;2023-05-07T05:43:18;3.77;;;3.40;;
1829;SDS011;914;48.118;11.600;2023-05-07T05:45:43;3.47;;;3.17;;
1829;SDS011;914;48.118;11.600;2023-05-07T05:48:09;4.10;;;3.63;;
1829;SDS011;914;48.118;11.600;2023-05-07T05:50:34;4.43;;;3.50;;
1829;SDS011;914;48.118;11.600;2023-05-07T05:53:03;3.63;;;3.20;;
1829;SDS011;914;48.118;11.600;2023-05-07T05:55:28;5.13;;;3.30;;
1829;SDS011;914;48.118;11.600;2023-05-07T05:57:57;3.70;;;3.30;;
1829;SDS011;914;48.118;11.600;2023-05-07T06:00:23;6.27;;;3.37;;
1829;SDS011;914;48.118;11.600;2023-05-07T06:02:49;3.83;;;3.20;;
1829;SDS011;914;48.118;11.600;2023-05-07T06:05:14;3.63;;;3.10;;
1829;SDS011;914;48.118;11.600;2023-05-07T06:07:40;7.23;;;3.33;;
1829;SDS011;914;48.118;11.600;2023-05-07T06:10:06;3.27;;;2.97;;
1829;SDS011;914;48.118;11.600;2023-05-07T06:12:32;4.40;;;3.43;;
1829;SDS011;914;48.118;11.600;2023-05-07T06:14:58;5.40;;;3.40;;
1829;SDS011;914;48.118;11.600;2023-05-07T06:17:23;4.07;;;3.40;;
1829;SDS011;914;48.118;11.600;2023-05-07T06:19:49;4.00;;;3.33;;
1829;SDS011;914;48.118;11.600;2023-05-07T06:22:15;10.47;;;3.53;;
1829;SDS011;914;48.118;11.600;2023-05-07T06:24:40;4.57;;;3.30;;
1829;SDS011;914;48.118;11.600;2023-05-07T06:27:06;3.37;;;3.07;;
1829;SDS011;914;48.118;11.600;2023-05-07T06:29:47;2.90;;;2.70;;
1829;SDS011;914;48.118;11.600;2023-05-07T06:32:13;3.30;;;3.00;;
1829;SDS011;914;48.118;11.600;2023-05-07T06:34:39;3.27;;;2.97;;
1829;SDS011;914;48.118;11.600;2023-05-07T06:37:06;2.70;;;2.50;;
1829;SDS011;914;48.118;11.600;2023-05-07T06:39:32;4.63;;;2.70;;
1829;SDS011;914;48.118;11.600;2023-05-07T06:41:59;2.87;;;2.67;;
1829;SDS011;914;48.118;11.600;2023-05-07T06:44:25;5.13;;;2.63;;
1829;SDS011;914;48.118;11.600;2023-05-07T06:46:51;3.13;;;2.83;;
1829;SDS011;914;48.118;11.600;2023-05-07T06:49:16;3.77;;;2.53;;
1829;SDS011;914;48.118;11.600;2023-05-07T06:51:42;9.43;;;3.30;;
1829;SDS011;914;48.118;11.600;2023-05-07T06:54:08;4.13;;;2.38;;
1829;SDS011;914;48.118;11.600;2023-05-07T06:56:33;3.88;;;2.50;;
1829;SDS011;914;48.118;11.600;2023-05-07T06:59:02;2.72;;;2.47;;
1829;SDS011;914;48.118;11.600;2023-05-07T07:01:28;2.60;;;2.40;;
1829;SDS011;914;48.118;11.600;2023-05-07T07:03:54;2.85;;;2.65;;
1829;SDS011;914;48.118;11.600;2023-05-07T07:06:20;6.27;;;2.70;;
1829;SDS011;914;48.118;11.600;2023-05-07T07:08:46;2.83;;;2.33;;
1829;SDS011;914;48.118;11.600;2023-05-07T07:11:11;2.60;;;2.40;;
1829;SDS011;914;48.118;11.600;2023-05-07T07:13:37;2.70;;;2.50;;
1829;SDS011;914;48.118;11.600;2023-05-07T07:16:03;2.60;;;2.40;;
1829;SDS011;914;48.118;11.600;2023-05-07T07:18:28;6.07;;;2.33;;
1829;SDS011;914;48.118;11.600;2023-05-07T07:20:54;2.45;;;2.15;;
1829;SDS011;914;48.118;11.600;2023-05-07T07:23:20;4.25;;;2.40;;
1829;SDS011;914;48.118;11.600;2023-05-07T07:25:45;2.80;;;2.60;;
1829;SDS011;914;48.118;11.600;2023-05-07T07:28:11;2.80;;;2.20;;
1829;SDS011;914;48.118;11.600;2023-05-07T07:30:37;2.80;;;2.50;;
1829;SDS011;914;48.118;11.600;2023-05-07T07:33:03;2.60;;;2.40;;
1829;SDS011;914;48.118;11.600;2023-05-07T07:35:30;2.63;;;2.20;;
1829;SDS011;914;48.118;11.600;2023-05-07T07:37:59;3.60;;;2.25;;
1829;SDS011;914;48.118;11.600;2023-05-07T07:40:24;2.05;;;1.95;;
1829;SDS011;914;48.118;11.600;2023-05-07T07:42:51;2.20;;;2.00;;
1829;SDS011;914;48.118;11.600;2023-05-07T07:45:17;3.17;;;1.90;;
1829;SDS011;914;48.118;11.600;2023-05-07T07:47:43;3.78;;;2.05;;
1829;SDS011;914;48.118;11.600;2023-05-07T07:50:08;2.78;;;2.10;;
1829;SDS011;914;48.118;11.600;2023-05-07T07:52:35;3.47;;;2.03;;
1829;SDS011;914;48.118;11.600;2023-05-07T07:55:01;4.05;;;2.58;;
1829;SDS011;914;48.118;11.600;2023-05-07T07:57:27;2.83;;;2.22;;
1829;SDS011;914;48.118;11.600;2023-05-07T07:59:52;2.25;;;2.05;;
1829;SDS011;914;48.118;11.600;2023-05-07T08:02:18;2.20;;;2.00;;
1829;SDS011;914;48.118;11.600;2023-05-07T08:04:44;4.05;;;2.50;;
1829;SDS011;914;48.118;11.600;2023-05-07T08:07:10;4.85;;;3.00;;
1829;SDS011;914;48.118;11.600;2023-05-07T08:09:36;3.08;;;2.60;;
1829;SDS011;914;48.118;11.600;2023-05-07T08:12:02;5.25;;;2.55;;
1829;SDS011;914;48.118;11.600;2023-05-07T08:14:28;4.43;;;2.60;;
1829;SDS011;914;48.118;11.600;2023-05-07T08:16:54;2.63;;;2.42;;
1829;SDS011;914;48.118;11.600;2023-05-07T08:19:20;2.97;;;2.20;;
1829;SDS011;914;48.118;11.600;2023-05-07T08:21:46;2.40;;;2.20;;
1829;SDS011;914;48.118;11.600;2023-05-07T08:24:13;2.42;;;2.10;;
1829;SDS011;914;48.118;11.600;2023-05-07T08:26:39;3.80;;;2.35;;
1829;SDS011;914;48.118;11.600;2023-05-07T08:29:05;3.25;;;2.50;;
1829;SDS011;914;48.118;11.600;2023-05-07T08:31:31;3.33;;;2.60;;
1829;SDS011;914;48.118;11.600;2023-05-07T08:33:57;5.05;;;2.20;;
1829;SDS011;914;48.118;11.600;2023-05-07T08:36:23;3.25;;;2.40;;
1829;SDS011;914;48.118;11.600;2023-05-07T08:38:49;3.22;;;2.20;;
1829;SDS011;914;48.118;11.600;2023-05-07T08:41:15;4.00;;;2.50;;
1829;SDS011;914;48.118;11.600;2023-05-07T08:43:41;4.57;;;2.30;;
1829;SDS011;914;48.118;11.600;2023-05-07T08:46:08;5.72;;;2.78;;
1829;SDS011;914;48.118;11.600;2023-05-07T08:48:35;2.70;;;2.50;;
1829;SDS011;914;48.118;11.600;2023-05-07T08:51:01;3.58;;;2.55;;
1829;SDS011;914;48.118;11.600;2023-05-07T08:53:27;2.80;;;2.30;;
1829;SDS011;914;48.118;11.600;2023-05-07T08:55:54;4.85;;;2.10;;
1829;SDS011;914;48.118;11.600;2023-05-07T08:58:20;3.03;;;1.80;;
1829;SDS011;914;48.118;11.600;2023-05-07T09:00:46;19.98;;;3.55;;
1829;SDS011;914;48.118;11.600;2023-05-07T09:03:12;2.22;;;2.00;;
1829;SDS011;914;48.118;11.600;2023-05-07T09:05:38;5.05;;;2.00;;
1829;SDS011;914;48.118;11.600;2023-05-07T09:08:03;6.15;;;1.80;;
1829;SDS011;914;48.118;11.600;2023-05-07T09:10:34;2.75;;;1.70;;
1829;SDS011;914;48.118;11.600;2023-05-07T09:13:00;2.97;;;1.83;;
1829;SDS011;914;48.118;11.600;2023-05-07T09:15:26;3.83;;;2.10;;
1829;SDS011;914;48.118;11.600;2023-05-07T09:17:53;2.00;;;1.90;;
1829;SDS011;914;48.118;11.600;2023-05-07T09:20:18;2.50;;;2.30;;
1829;SDS011;914;48.118;11.600;2023-05-07T09:22:44;3.05;;;2.35;;
1829;SDS011;914;48.118;11.600;2023-05-07T09:25:11;2.15;;;1.85;;
1829;SDS011;914;48.118;11.600;2023-05-07T09:27:37;2.05;;;1.85;;
1829;SDS011;914;48.118;11.600;2023-05-07T09:30:03;2.40;;;1.90;;
1829;SDS011;914;48.118;11.600;2023-05-07T09:32:33;2.45;;;2.05;;
1829;SDS011;914;48.118;11.600;2023-05-07T09:35:01;3.78;;;1.98;;
1829;SDS011;914;48.118;11.600;2023-05-07T09:37:28;2.47;;;1.70;;
1829;SDS011;914;48.118;11.600;2023-05-07T09:39:56;2.42;;;2.22;;
1829;SDS011;914;48.118;11.600;2023-05-07T09:42:24;2.30;;;2.05;;
1829;SDS011;914;48.118;11.600;2023-05-07T09:44:52;2.03;;;1.90;;
1829;SDS011;914;48.118;11.600;2023-05-07T09:47:22;2.05;;;1.92;;
1829;SDS011;914;48.118;11.600;2023-05-07T09:49:49;3.10;;;2.08;;
1829;SDS011;914;48.118;11.600;2023-05-07T09:52:20;1.67;;;1.58;;
1829;SDS011;914;48.118;11.600;2023-05-07T09:54:46;1.73;;;1.63;;
1829;SDS011;914;48.118;11.600;2023-05-07T09:57:14;2.50;;;1.77;;
1829;SDS011;914;48.118;11.600;2023-05-07T09:59:42;2.25;;;1.67;;
1829;SDS011;914;48.118;11.600;2023-05-07T10:02:09;1.90;;;1.80;;
1829;SDS011;914;48.118;11.600;2023-05-07T10:04:35;2.45;;;1.95;;
1829;SDS011;914;48.118;11.600;2023-05-07T10:07:01;2.33;;;1.95;;
1829;SDS011;914;48.118;11.600;2023-05-07T10:09:29;2.33;;;2.10;;
1829;SDS011;914;48.118;11.600;2023-05-07T10:11:56;3.33;;;1.80;;
1829;SDS011;914;48.118;11.600;2023-05-07T10:14:22;3.10;;;1.80;;
1829;SDS011;914;48.118;11.600;2023-05-07T10:16:48;1.90;;;1.70;;
1829;SDS011;914;48.118;11.600;2023-05-07T10:19:14;2.20;;;1.73;;
1829;SDS011;914;48.118;11.600;2023-05-07T10:21:42;2.03;;;1.77;;
1829;SDS011;914;48.118;11.600;2023-05-07T10:24:16;3.83;;;1.90;;
1829;SDS011;914;48.118;11.600;2023-05-07T10:26:47;3.03;;;1.80;;
1829;SDS011;914;48.118;11.600;2023-05-07T10:32:33;3.03;;;2.05;;
1829;SDS011;914;48.118;11.600;2023-05-07T10:35:26;1.80;;;1.48;;
1829;SDS011;914;48.118;11.600;2023-05-07T10:37:55;3.40;;;1.70;;
1829;SDS011;914;48.118;11.600;2023-05-07T10:40:21;4.78;;;1.70;;
1829;SDS011;914;48.118;11.600;2023-05-07T10:42:56;1.83;;;1.67;;
1829;SDS011;914;48.118;11.600;2023-05-07T10:45:24;2.28;;;1.80;;
1829;SDS011;914;48.118;11.600;2023-05-07T10:50:39;1.98;;;1.60;;
1829;SDS011;914;48.118;11.600;2023-05-07T10:55:44;1.58;;;1.48;;
1829;SDS011;914;48.118;11.600;2023-05-07T10:58:33;2.95;;;1.80;;
1829;SDS011;914;48.118;11.600;2023-05-07T11:01:00;2.08;;;1.65;;
1829;SDS011;914;48.118;11.600;2023-05-07T11:03:27;4.20;;;1.67;;
1829;SDS011;914;48.118;11.600;2023-05-07T11:06:09;2.78;;;1.80;;
1829;SDS011;914;48.118;11.600;2023-05-07T11:08:58;6.85;;;1.75;;
1829;SDS011;914;48.118;11.600;2023-05-07T11:11:57;4.00;;;2.05;;
1829;SDS011;914;48.118;11.600;2023-05-07T11:14:42;2.40;;;2.10;;
1829;SDS011;914;48.118;11.600;2023-05-07T11:17:10;2.75;;;2.00;;
1829;SDS011;914;48.118;11.600;2023-05-07T11:19:52;4.35;;;2.20;;
1829;SDS011;914;48.118;11.600;2023-05-07T11:24:56;2.33;;;2.08;;
1829;SDS011;914;48.118;11.600;2023-05-07T11:27:24;5.15;;;2.55;;
1829;SDS011;914;48.118;11.600;2023-05-07T11:29:51;3.70;;;2.53;;
1829;SDS011;914;48.118;11.600;2023-05-07T11:32:22;3.83;;;2.53;;
1829;SDS011;914;48.118;11.600;2023-05-07T11:34:57;3.05;;;2.60;;
1829;SDS011;914;48.118;11.600;2023-05-07T11:37:24;5.93;;;2.60;;
1829;SDS011;914;48.118;11.600;2023-05-07T11:39:58;2.83;;;2.63;;
1829;SDS011;914;48.118;11.600;2023-05-07T11:42:35;2.92;;;2.63;;
1829;SDS011;914;48.118;11.600;2023-05-07T11:45:02;4.10;;;3.13;;
1829;SDS011;914;48.118;11.600;2023-05-07T11:47:32;3.15;;;2.85;;
1829;SDS011;914;48.118;11.600;2023-05-07T11:50:05;5.05;;;3.03;;
1829;SDS011;914;48.118;11.600;2023-05-07T11:52:32;3.40;;;3.10;;
1829;SDS011;914;48.118;11.600;2023-05-07T11:54:58;5.80;;;3.10;;
1829;SDS011;914;48.118;11.600;2023-05-07T11:57:25;4.03;;;2.60;;
1829;SDS011;914;48.118;11.600;2023-05-07T11:59:54;2.67;;;2.47;;
1829;SDS011;914;48.118;11.600;2023-05-07T12:02:21;3.13;;;2.83;;
1829;SDS011;914;48.118;11.600;2023-05-07T12:04:47;3.13;;;2.65;;
1829;SDS011;914;48.118;11.600;2023-05-07T12:07:13;2.75;;;2.55;;
1829;SDS011;914;48.118;11.600;2023-05-07T12:09:43;2.50;;;2.35;;
1829;SDS011;914;48.118;11.600;2023-05-07T12:12:09;2.60;;;2.40;;
1829;SDS011;914;48.118;11.600;2023-05-07T12:14:39;3.00;;;2.70;;
1829;SDS011;914;48.118;11.600;2023-05-07T12:17:05;2.33;;;2.22;;
1829;SDS011;914;48.118;11.600;2023-05-07T12:19:33;3.13;;;2.53;;
1829;SDS011;914;48.118;11.600;2023-05-07T12:21:59;5.55;;;2.50;;
1829;SDS011;914;48.118;11.600;2023-05-07T12:24:27;2.15;;;1.95;;
1829;SDS011;914;48.118;11.600;2023-05-07T12:26:54;2.40;;;2.20;;
1829;SDS011;914;48.118;11.600;2023-05-07T12:29:23;3.28;;;2.33;;
1829;SDS011;914;48.118;11.600;2023-05-07T12:31:52;2.47;;;2.25;;
1829;SDS011;914;48.118;11.600;2023-05-07T12:34:18;3.30;;;2.25;;
1829;SDS011;914;48.118;11.600;2023-05-07T12:36:43;2.13;;;2.00;;
1829;SDS011;914;48.118;11.600;2023-05-07T12:39:09;5.35;;;2.30;;
1829;SDS011;914;48.118;11.600;2023-05-07T12:41:54;3.40;;;2.28;;
1829;SDS011;914;48.118;11.600;2023-05-07T12:44:24;2.58;;;2.13;;
1829;SDS011;914;48.118;11.600;2023-05-07T12:46:54;2.10;;;1.90;;
1829;SDS011;914;48.118;11.600;2023-05-07T12:49:19;2.58;;;2.00;;
1829;SDS011;914;48.118;11.600;2023-05-07T12:51:48;2.38;;;2.17;;
1829;SDS011;914;48.118;11.600;2023-05-07T12:54:27;2.92;;;2.08;;
1829;SDS011;914;48.118;11.600;2023-05-07T12:57:27;2.22;;;1.98;;
1829;SDS011;914;48.118;11.600;2023-05-07T12:59:46;2.63;;;2.42;;
1829;SDS011;914;48.118;11.600;2023-05-07T13:02:12;2.10;;;1.90;;
1829;SDS011;914;48.118;11.600;2023-05-07T13:04:37;5.03;;;1.98;;
1829;SDS011;914;48.118;11.600;2023-05-07T13:07:03;1.83;;;1.73;;
1829;SDS011;914;48.118;11.600;2023-05-07T13:09:29;1.95;;;1.73;;
1829;SDS011;914;48.118;11.600;2023-05-07T13:11:56;2.97;;;2.00;;
1829;SDS011;914;48.118;11.600;2023-05-07T13:14:25;1.63;;;1.52;;
1829;SDS011;914;48.118;11.600;2023-05-07T13:16:50;2.20;;;1.60;;
1829;SDS011;914;48.118;11.600;2023-05-07T13:19:16;4.22;;;1.45;;
1829;SDS011;914;48.118;11.600;2023-05-07T13:21:42;2.45;;;1.58;;
1829;SDS011;914;48.118;11.600;2023-05-07T13:24:08;1.90;;;1.50;;
1829;SDS011;914;48.118;11.600;2023-05-07T13:26:33;2.22;;;1.60;;
1829;SDS011;914;48.118;11.600;2023-05-07T13:28:59;1.40;;;1.30;;
1829;SDS011;914;48.118;11.600;2023-05-07T13:31:25;1.90;;;1.50;;
1829;SDS011;914;48.118;11.600;2023-05-07T13:33:51;1.95;;;1.27;;
1829;SDS011;914;48.118;11.600;2023-05-07T13:36:17;2.10;;;1.10;;
1829;SDS011;914;48.118;11.600;2023-05-07T13:38:45;1.80;;;1.42;;
1829;SDS011;914;48.118;11.600;2023-05-07T13:41:11;1.70;;;1.60;;
1829;SDS011;914;48.118;11.600;2023-05-07T13:43:38;2.28;;;1.80;;
1829;SDS011;914;48.118;11.600;2023-05-07T13:46:03;3.30;;;1.60;;
1829;SDS011;914;48.118;11.600;2023-05-07T13:48:29;1.70;;;1.60;;
1829;SDS011;914;48.118;11.600;2023-05-07T13:50:54;2.78;;;1.70;;
1829;SDS011;914;48.118;11.600;2023-05-07T13:53:20;1.77;;;1.67;;
1829;SDS011;914;48.118;11.600;2023-05-07T13:55:46;1.60;;;1.50;;
1829;SDS011;914;48.118;11.600;2023-05-07T13:58:12;2.75;;;1.48;;
1829;SDS011;914;48.118;11.600;2023-05-07T14:00:37;1.60;;;1.40;;
1829;SDS011;914;48.118;11.600;2023-05-07T14:03:03;1.60;;;1.30;;
1829;SDS011;914;48.118;11.600;2023-05-07T14:05:30;1.95;;;1.27;;
1829;SDS011;914;48.118;11.600;2023-05-07T14:07:56;1.73;;;1.58;;
1829;SDS011;914;48.118;11.600;2023-05-07T14:10:23;1.90;;;1.60;;
1829;SDS011;914;48.118;11.600;2023-05-07T14:12:48;2.72;;;1.70;;
1829;SDS011;914;48.118;11.600;2023-05-07T14:15:14;1.70;;;1.60;;
1829;SDS011;914;48.118;11.600;2023-05-07T14:17:41;1.70;;;1.60;;
1829;SDS011;914;48.118;11.600;2023-05-07T14:20:07;2.15;;;1.83;;
1829;SDS011;914;48.118;11.600;2023-05-07T14:22:34;1.92;;;1.65;;
1829;SDS011;914;48.118;11.600;2023-05-07T14:25:03;1.67;;;1.58;;
1829;SDS011;914;48.118;11.600;2023-05-07T14:27:29;2.42;;;2.00;;
1829;SDS011;914;48.118;11.600;2023-05-07T14:29:54;2.03;;;1.70;;
1829;SDS011;914;48.118;11.600;2023-05-07T14:32:20;3.47;;;2.08;;
1829;SDS011;914;48.118;11.600;2023-05-07T14:34:46;1.63;;;1.50;;
1829;SDS011;914;48.118;11.600;2023-05-07T14:37:12;3.65;;;2.03;;
1829;SDS011;914;48.118;11.600;2023-05-07T14:39:38;2.08;;;1.98;;
1829;SDS011;914;48.118;11.600;2023-05-07T14:42:04;2.00;;;1.90;;
1829;SDS011;914;48.118;11.600;2023-05-07T14:44:30;2.35;;;2.00;;
1829;SDS011;914;48.118;11.600;2023-05-07T14:46:56;3.60;;;1.95;;
1829;SDS011;914;48.118;11.600;2023-05-07T14:49:22;3.83;;;2.30;;
1829;SDS011;914;48.118;11.600;2023-05-07T14:51:47;2.53;;;2.20;;
1829;SDS011;914;48.118;11.600;2023-05-07T14:54:13;2.20;;;2.00;;
1829;SDS011;914;48.118;11.600;2023-05-07T14:56:39;3.55;;;2.50;;
1829;SDS011;914;48.118;11.600;2023-05-07T14:59:06;2.67;;;2.30;;
1829;SDS011;914;48.118;11.600;2023-05-07T15:01:32;2.60;;;2.40;;
1829;SDS011;914;48.118;11.600;2023-05-07T15:04:00;2.80;;;1.95;;
1829;SDS011;914;48.118;11.600;2023-05-07T15:06:26;2.78;;;2.30;;
1829;SDS011;914;48.118;11.600;2023-05-07T15:08:51;2.25;;;2.05;;
1829;SDS011;914;48.118;11.600;2023-05-07T15:11:17;2.30;;;2.10;;
1829;SDS011;914;48.118;11.600;2023-05-07T15:13:43;3.60;;;2.30;;
1829;SDS011;914;48.118;11.600;2023-05-07T15:16:08;4.70;;;2.47;;
1829;SDS011;914;48.118;11.600;2023-05-07T15:18:34;3.03;;;2.20;;
1829;SDS011;914;48.118;11.600;2023-05-07T15:20:59;2.85;;;2.20;;
1829;SDS011;914;48.118;11.600;2023-05-07T15:23:25;2.58;;;2.38;;
1829;SDS011;914;48.118;11.600;2023-05-07T15:25:52;2.45;;;2.25;;
1829;SDS011;914;48.118;11.600;2023-05-07T15:28:18;2.22;;;2.08;;